Terminal Aerodrome Forecast
Issued by NWS

Home | Current Version | Previous Version | Text Only | Print | Product List | Glossary On
Versions: 1 2 3 4 5 6 7 8 9 10 11 12 13 14
000
FTUS45 KRIW 300543
TAFCOD
TAF
KCOD 300543Z 3006/3106 21009KT P6SM SCT110 BKN200
     FM300700 24013G21KT P6SM VCSH BKN100
     FM301600 21010G17KT P6SM SCT090 BKN200
     FM310100 27018G30KT P6SM FEW110
      AMD LTD TO CLD VIS AND WIND=

USA.gov is the U.S. government's official web portal to all federal, state and local government web resources and services.